sensor_id;sensor_type;location;lat;lon;timestamp;P1;durP1;ratioP1;P2;durP2;ratioP2
21507;SDS011;10915;54.352;9.074;2023-04-24T00:01:41;13.90;;;12.40;;
21507;SDS011;10915;54.352;9.074;2023-04-24T00:04:07;12.97;;;11.37;;
21507;SDS011;10915;54.352;9.074;2023-04-24T00:06:35;13.53;;;12.13;;
21507;SDS011;10915;54.352;9.074;2023-04-24T00:09:07;15.43;;;12.27;;
21507;SDS011;10915;54.352;9.074;2023-04-24T00:11:35;13.73;;;12.03;;
21507;SDS011;10915;54.352;9.074;2023-04-24T00:14:01;14.40;;;12.87;;
21507;SDS011;10915;54.352;9.074;2023-04-24T00:16:27;14.93;;;12.73;;
21507;SDS011;10915;54.352;9.074;2023-04-24T00:18:53;16.13;;;12.70;;
21507;SDS011;10915;54.352;9.074;2023-04-24T00:21:19;17.83;;;13.17;;
21507;SDS011;10915;54.352;9.074;2023-04-24T00:23:45;16.00;;;13.77;;
21507;SDS011;10915;54.352;9.074;2023-04-24T00:26:11;14.57;;;12.97;;
21507;SDS011;10915;54.352;9.074;2023-04-24T00:28:36;17.13;;;14.57;;
21507;SDS011;10915;54.352;9.074;2023-04-24T00:31:02;17.30;;;14.77;;
21507;SDS011;10915;54.352;9.074;2023-04-24T00:33:28;17.03;;;15.23;;
21507;SDS011;10915;54.352;9.074;2023-04-24T00:35:53;15.93;;;14.23;;
21507;SDS011;10915;54.352;9.074;2023-04-24T00:38:19;17.03;;;15.23;;
21507;SDS011;10915;54.352;9.074;2023-04-24T00:40:45;17.50;;;15.67;;
21507;SDS011;10915;54.352;9.074;2023-04-24T00:43:10;17.67;;;15.80;;
21507;SDS011;10915;54.352;9.074;2023-04-24T00:45:36;18.17;;;15.47;;
21507;SDS011;10915;54.352;9.074;2023-04-24T00:48:02;18.73;;;16.40;;
21507;SDS011;10915;54.352;9.074;2023-04-24T00:50:29;19.43;;;15.20;;
21507;SDS011;10915;54.352;9.074;2023-04-24T00:52:55;19.67;;;16.80;;
21507;SDS011;10915;54.352;9.074;2023-04-24T00:55:21;21.40;;;16.53;;
21507;SDS011;10915;54.352;9.074;2023-04-24T00:57:46;18.83;;;16.83;;
21507;SDS011;10915;54.352;9.074;2023-04-24T01:00:13;20.97;;;18.30;;
21507;SDS011;10915;54.352;9.074;2023-04-24T01:02:41;19.07;;;17.00;;
21507;SDS011;10915;54.352;9.074;2023-04-24T01:05:10;18.20;;;16.20;;
21507;SDS011;10915;54.352;9.074;2023-04-24T01:07:37;21.93;;;17.27;;
21507;SDS011;10915;54.352;9.074;2023-04-24T01:10:06;19.83;;;17.77;;
21507;SDS011;10915;54.352;9.074;2023-04-24T01:12:33;23.50;;;18.43;;
21507;SDS011;10915;54.352;9.074;2023-04-24T01:14:59;20.53;;;18.33;;
21507;SDS011;10915;54.352;9.074;2023-04-24T01:17:25;22.27;;;18.87;;
21507;SDS011;10915;54.352;9.074;2023-04-24T01:19:50;20.33;;;17.93;;
21507;SDS011;10915;54.352;9.074;2023-04-24T01:22:18;23.37;;;19.70;;
21507;SDS011;10915;54.352;9.074;2023-04-24T01:24:45;22.87;;;19.23;;
21507;SDS011;10915;54.352;9.074;2023-04-24T01:27:11;22.23;;;19.43;;
21507;SDS011;10915;54.352;9.074;2023-04-24T01:29:38;23.57;;;20.53;;
21507;SDS011;10915;54.352;9.074;2023-04-24T01:32:04;25.83;;;21.40;;
21507;SDS011;10915;54.352;9.074;2023-04-24T01:34:31;24.27;;;20.57;;
21507;SDS011;10915;54.352;9.074;2023-04-24T01:36:57;26.80;;;22.53;;
21507;SDS011;10915;54.352;9.074;2023-04-24T01:39:23;25.10;;;21.37;;
21507;SDS011;10915;54.352;9.074;2023-04-24T01:41:50;25.17;;;22.47;;
21507;SDS011;10915;54.352;9.074;2023-04-24T01:44:17;24.50;;;21.87;;
21507;SDS011;10915;54.352;9.074;2023-04-24T01:46:43;24.33;;;21.53;;
21507;SDS011;10915;54.352;9.074;2023-04-24T01:49:09;25.87;;;22.70;;
21507;SDS011;10915;54.352;9.074;2023-04-24T01:51:35;26.90;;;23.90;;
21507;SDS011;10915;54.352;9.074;2023-04-24T01:54:00;26.63;;;23.00;;
21507;SDS011;10915;54.352;9.074;2023-04-24T01:56:27;25.73;;;23.07;;
21507;SDS011;10915;54.352;9.074;2023-04-24T01:58:54;31.90;;;25.00;;
21507;SDS011;10915;54.352;9.074;2023-04-24T02:01:21;26.13;;;23.33;;
21507;SDS011;10915;54.352;9.074;2023-04-24T02:03:48;29.13;;;24.43;;
21507;SDS011;10915;54.352;9.074;2023-04-24T02:06:13;29.33;;;26.10;;
21507;SDS011;10915;54.352;9.074;2023-04-24T02:08:39;29.53;;;26.43;;
21507;SDS011;10915;54.352;9.074;2023-04-24T02:11:05;29.63;;;26.43;;
21507;SDS011;10915;54.352;9.074;2023-04-24T02:13:30;29.17;;;26.23;;
21507;SDS011;10915;54.352;9.074;2023-04-24T02:15:57;31.10;;;27.97;;
21507;SDS011;10915;54.352;9.074;2023-04-24T02:18:23;32.53;;;29.03;;
21507;SDS011;10915;54.352;9.074;2023-04-24T02:20:49;32.87;;;29.33;;
21507;SDS011;10915;54.352;9.074;2023-04-24T02:23:15;31.87;;;28.63;;
21507;SDS011;10915;54.352;9.074;2023-04-24T02:25:40;31.57;;;28.10;;
21507;SDS011;10915;54.352;9.074;2023-04-24T02:28:06;32.33;;;28.17;;
21507;SDS011;10915;54.352;9.074;2023-04-24T02:30:32;36.00;;;28.43;;
21507;SDS011;10915;54.352;9.074;2023-04-24T02:32:57;29.87;;;26.57;;
21507;SDS011;10915;54.352;9.074;2023-04-24T02:35:23;28.60;;;24.97;;
21507;SDS011;10915;54.352;9.074;2023-04-24T02:37:48;29.53;;;25.17;;
21507;SDS011;10915;54.352;9.074;2023-04-24T02:40:14;29.47;;;25.03;;
21507;SDS011;10915;54.352;9.074;2023-04-24T02:42:40;26.97;;;23.33;;
21507;SDS011;10915;54.352;9.074;2023-04-24T02:45:05;29.50;;;23.47;;
21507;SDS011;10915;54.352;9.074;2023-04-24T02:47:31;26.70;;;23.80;;
21507;SDS011;10915;54.352;9.074;2023-04-24T02:49:57;29.50;;;24.70;;
21507;SDS011;10915;54.352;9.074;2023-04-24T02:52:23;27.63;;;23.40;;
21507;SDS011;10915;54.352;9.074;2023-04-24T02:54:48;29.73;;;24.67;;
21507;SDS011;10915;54.352;9.074;2023-04-24T02:57:14;24.83;;;21.93;;
21507;SDS011;10915;54.352;9.074;2023-04-24T02:59:40;26.17;;;22.47;;
21507;SDS011;10915;54.352;9.074;2023-04-24T03:02:05;27.50;;;22.60;;
21507;SDS011;10915;54.352;9.074;2023-04-24T03:04:31;23.60;;;21.07;;
21507;SDS011;10915;54.352;9.074;2023-04-24T03:06:57;22.97;;;20.27;;
21507;SDS011;10915;54.352;9.074;2023-04-24T03:09:23;23.43;;;20.00;;
21507;SDS011;10915;54.352;9.074;2023-04-24T03:11:49;22.67;;;18.73;;
21507;SDS011;10915;54.352;9.074;2023-04-24T03:14:15;20.17;;;17.50;;
21507;SDS011;10915;54.352;9.074;2023-04-24T03:16:41;18.90;;;16.90;;
21507;SDS011;10915;54.352;9.074;2023-04-24T03:19:06;19.00;;;16.10;;
21507;SDS011;10915;54.352;9.074;2023-04-24T03:21:32;16.70;;;14.90;;
21507;SDS011;10915;54.352;9.074;2023-04-24T03:23:58;14.83;;;12.80;;
21507;SDS011;10915;54.352;9.074;2023-04-24T03:26:24;11.30;;;10.10;;
21507;SDS011;10915;54.352;9.074;2023-04-24T03:28:49;10.10;;;8.67;;
21507;SDS011;10915;54.352;9.074;2023-04-24T03:31:15;7.00;;;5.97;;
21507;SDS011;10915;54.352;9.074;2023-04-24T03:33:41;7.43;;;5.20;;
21507;SDS011;10915;54.352;9.074;2023-04-24T03:36:07;5.50;;;4.13;;
21507;SDS011;10915;54.352;9.074;2023-04-24T03:38:33;5.70;;;3.73;;
21507;SDS011;10915;54.352;9.074;2023-04-24T03:40:58;5.83;;;3.60;;
21507;SDS011;10915;54.352;9.074;2023-04-24T03:43:24;5.10;;;3.37;;
21507;SDS011;10915;54.352;9.074;2023-04-24T03:45:52;4.27;;;3.67;;
21507;SDS011;10915;54.352;9.074;2023-04-24T03:48:18;5.30;;;3.50;;
21507;SDS011;10915;54.352;9.074;2023-04-24T03:50:43;5.17;;;3.20;;
21507;SDS011;10915;54.352;9.074;2023-04-24T03:53:09;3.70;;;3.20;;
21507;SDS011;10915;54.352;9.074;2023-04-24T03:55:35;3.97;;;3.53;;
21507;SDS011;10915;54.352;9.074;2023-04-24T03:58:03;3.93;;;3.07;;
21507;SDS011;10915;54.352;9.074;2023-04-24T04:00:33;3.83;;;3.40;;
21507;SDS011;10915;54.352;9.074;2023-04-24T04:02:59;4.27;;;3.03;;
21507;SDS011;10915;54.352;9.074;2023-04-24T04:05:25;3.93;;;3.43;;
21507;SDS011;10915;54.352;9.074;2023-04-24T04:07:50;9.57;;;3.37;;
21507;SDS011;10915;54.352;9.074;2023-04-24T04:10:16;5.57;;;3.80;;
21507;SDS011;10915;54.352;9.074;2023-04-24T04:12:42;4.73;;;3.77;;
21507;SDS011;10915;54.352;9.074;2023-04-24T04:15:08;4.60;;;4.03;;
21507;SDS011;10915;54.352;9.074;2023-04-24T04:17:33;4.50;;;4.10;;
21507;SDS011;10915;54.352;9.074;2023-04-24T04:19:59;5.33;;;4.50;;
21507;SDS011;10915;54.352;9.074;2023-04-24T04:22:25;5.47;;;4.77;;
21507;SDS011;10915;54.352;9.074;2023-04-24T04:24:51;5.53;;;4.90;;
21507;SDS011;10915;54.352;9.074;2023-04-24T04:27:17;5.67;;;5.03;;
21507;SDS011;10915;54.352;9.074;2023-04-24T04:29:43;7.90;;;5.13;;
21507;SDS011;10915;54.352;9.074;2023-04-24T04:32:09;6.40;;;5.73;;
21507;SDS011;10915;54.352;9.074;2023-04-24T04:34:35;6.53;;;5.77;;
21507;SDS011;10915;54.352;9.074;2023-04-24T04:37:02;5.80;;;5.20;;
21507;SDS011;10915;54.352;9.074;2023-04-24T04:39:28;5.87;;;4.87;;
21507;SDS011;10915;54.352;9.074;2023-04-24T04:41:55;8.27;;;5.00;;
21507;SDS011;10915;54.352;9.074;2023-04-24T04:44:21;5.60;;;4.80;;
21507;SDS011;10915;54.352;9.074;2023-04-24T04:46:47;6.63;;;4.87;;
21507;SDS011;10915;54.352;9.074;2023-04-24T04:49:12;6.50;;;4.90;;
21507;SDS011;10915;54.352;9.074;2023-04-24T04:51:41;5.70;;;4.17;;
21507;SDS011;10915;54.352;9.074;2023-04-24T04:54:07;5.27;;;4.37;;
21507;SDS011;10915;54.352;9.074;2023-04-24T04:56:33;5.47;;;4.30;;
21507;SDS011;10915;54.352;9.074;2023-04-24T04:58:58;6.63;;;4.50;;
21507;SDS011;10915;54.352;9.074;2023-04-24T05:01:24;5.77;;;4.80;;
21507;SDS011;10915;54.352;9.074;2023-04-24T05:03:52;5.87;;;5.00;;
21507;SDS011;10915;54.352;9.074;2023-04-24T05:06:18;5.50;;;5.00;;
21507;SDS011;10915;54.352;9.074;2023-04-24T05:08:43;5.03;;;4.50;;
21507;SDS011;10915;54.352;9.074;2023-04-24T05:11:09;5.50;;;4.97;;
21507;SDS011;10915;54.352;9.074;2023-04-24T05:13:35;6.17;;;5.57;;
21507;SDS011;10915;54.352;9.074;2023-04-24T05:16:00;6.43;;;5.77;;
21507;SDS011;10915;54.352;9.074;2023-04-24T05:18:26;8.10;;;6.37;;
21507;SDS011;10915;54.352;9.074;2023-04-24T05:20:51;7.07;;;6.33;;
21507;SDS011;10915;54.352;9.074;2023-04-24T05:23:17;7.10;;;6.40;;
21507;SDS011;10915;54.352;9.074;2023-04-24T05:25:43;7.97;;;7.17;;
21507;SDS011;10915;54.352;9.074;2023-04-24T05:28:08;8.47;;;7.60;;
21507;SDS011;10915;54.352;9.074;2023-04-24T05:30:34;9.57;;;7.70;;
21507;SDS011;10915;54.352;9.074;2023-04-24T05:33:00;8.40;;;7.50;;
21507;SDS011;10915;54.352;9.074;2023-04-24T05:35:25;9.63;;;8.17;;
21507;SDS011;10915;54.352;9.074;2023-04-24T05:37:51;9.60;;;8.33;;
21507;SDS011;10915;54.352;9.074;2023-04-24T05:40:16;9.40;;;8.10;;
21507;SDS011;10915;54.352;9.074;2023-04-24T05:42:42;10.83;;;8.90;;
21507;SDS011;10915;54.352;9.074;2023-04-24T05:45:07;10.80;;;9.43;;
21507;SDS011;10915;54.352;9.074;2023-04-24T05:47:36;11.43;;;9.17;;
21507;SDS011;10915;54.352;9.074;2023-04-24T05:50:01;11.53;;;9.57;;
21507;SDS011;10915;54.352;9.074;2023-04-24T05:52:27;11.43;;;9.30;;
21507;SDS011;10915;54.352;9.074;2023-04-24T05:54:53;9.80;;;8.73;;
21507;SDS011;10915;54.352;9.074;2023-04-24T05:57:18;12.93;;;10.07;;
21507;SDS011;10915;54.352;9.074;2023-04-24T05:59:44;11.93;;;10.20;;
21507;SDS011;10915;54.352;9.074;2023-04-24T06:02:10;10.73;;;9.63;;
21507;SDS011;10915;54.352;9.074;2023-04-24T06:04:35;12.17;;;10.97;;
21507;SDS011;10915;54.352;9.074;2023-04-24T06:07:01;13.63;;;10.47;;
21507;SDS011;10915;54.352;9.074;2023-04-24T06:09:27;14.47;;;10.77;;
21507;SDS011;10915;54.352;9.074;2023-04-24T06:11:53;10.73;;;9.63;;
21507;SDS011;10915;54.352;9.074;2023-04-24T06:14:20;11.30;;;9.67;;
21507;SDS011;10915;54.352;9.074;2023-04-24T06:16:46;12.17;;;10.10;;
21507;SDS011;10915;54.352;9.074;2023-04-24T06:19:11;10.50;;;9.40;;
21507;SDS011;10915;54.352;9.074;2023-04-24T06:21:37;12.00;;;10.10;;
21507;SDS011;10915;54.352;9.074;2023-04-24T06:24:02;11.50;;;9.67;;
21507;SDS011;10915;54.352;9.074;2023-04-24T06:26:29;11.43;;;9.60;;
21507;SDS011;10915;54.352;9.074;2023-04-24T06:28:55;11.63;;;9.57;;
21507;SDS011;10915;54.352;9.074;2023-04-24T06:31:21;10.77;;;9.33;;
21507;SDS011;10915;54.352;9.074;2023-04-24T06:33:48;11.80;;;9.97;;
21507;SDS011;10915;54.352;9.074;2023-04-24T06:36:14;10.57;;;8.97;;
21507;SDS011;10915;54.352;9.074;2023-04-24T06:38:40;10.10;;;9.00;;
21507;SDS011;10915;54.352;9.074;2023-04-24T06:41:06;14.47;;;9.33;;
21507;SDS011;10915;54.352;9.074;2023-04-24T06:43:32;12.97;;;9.50;;
21507;SDS011;10915;54.352;9.074;2023-04-24T06:45:58;11.40;;;9.60;;
21507;SDS011;10915;54.352;9.074;2023-04-24T06:48:25;12.60;;;9.30;;
21507;SDS011;10915;54.352;9.074;2023-04-24T06:50:51;10.13;;;8.97;;
21507;SDS011;10915;54.352;9.074;2023-04-24T06:53:17;11.10;;;9.90;;
21507;SDS011;10915;54.352;9.074;2023-04-24T06:55:43;11.07;;;9.30;;
21507;SDS011;10915;54.352;9.074;2023-04-24T06:58:10;10.60;;;9.37;;
21507;SDS011;10915;54.352;9.074;2023-04-24T07:00:36;11.87;;;10.23;;
21507;SDS011;10915;54.352;9.074;2023-04-24T07:03:02;10.47;;;9.07;;
21507;SDS011;10915;54.352;9.074;2023-04-24T07:05:30;11.73;;;9.50;;
21507;SDS011;10915;54.352;9.074;2023-04-24T07:07:56;10.90;;;9.50;;
21507;SDS011;10915;54.352;9.074;2023-04-24T07:10:23;10.40;;;8.90;;
21507;SDS011;10915;54.352;9.074;2023-04-24T07:12:49;12.00;;;9.73;;
21507;SDS011;10915;54.352;9.074;2023-04-24T07:15:15;12.40;;;10.00;;
21507;SDS011;10915;54.352;9.074;2023-04-24T07:17:41;10.67;;;9.57;;
21507;SDS011;10915;54.352;9.074;2023-04-24T07:20:09;10.77;;;9.47;;
21507;SDS011;10915;54.352;9.074;2023-04-24T07:22:36;10.77;;;9.67;;
21507;SDS011;10915;54.352;9.074;2023-04-24T07:25:03;10.73;;;9.47;;
21507;SDS011;10915;54.352;9.074;2023-04-24T07:27:29;11.07;;;9.77;;
21507;SDS011;10915;54.352;9.074;2023-04-24T07:29:55;12.10;;;9.67;;
21507;SDS011;10915;54.352;9.074;2023-04-24T07:32:21;11.70;;;9.73;;
21507;SDS011;10915;54.352;9.074;2023-04-24T07:34:46;11.77;;;8.80;;
21507;SDS011;10915;54.352;9.074;2023-04-24T07:37:12;10.47;;;8.10;;
21507;SDS011;10915;54.352;9.074;2023-04-24T07:39:38;9.37;;;8.00;;
21507;SDS011;10915;54.352;9.074;2023-04-24T07:42:03;10.47;;;7.87;;
21507;SDS011;10915;54.352;9.074;2023-04-24T07:44:29;10.57;;;7.63;;
21507;SDS011;10915;54.352;9.074;2023-04-24T07:46:55;9.90;;;7.70;;
21507;SDS011;10915;54.352;9.074;2023-04-24T07:49:21;10.93;;;7.50;;
21507;SDS011;10915;54.352;9.074;2023-04-24T07:51:47;8.80;;;7.17;;
21507;SDS011;10915;54.352;9.074;2023-04-24T07:54:12;8.27;;;7.07;;
21507;SDS011;10915;54.352;9.074;2023-04-24T07:56:38;10.07;;;7.20;;
21507;SDS011;10915;54.352;9.074;2023-04-24T07:59:04;8.07;;;6.00;;
21507;SDS011;10915;54.352;9.074;2023-04-24T08:01:30;8.23;;;6.43;;
21507;SDS011;10915;54.352;9.074;2023-04-24T08:03:56;10.33;;;6.73;;
21507;SDS011;10915;54.352;9.074;2023-04-24T08:06:21;7.33;;;6.03;;
21507;SDS011;10915;54.352;9.074;2023-04-24T08:08:47;8.17;;;6.00;;
21507;SDS011;10915;54.352;9.074;2023-04-24T08:11:12;9.17;;;6.73;;
21507;SDS011;10915;54.352;9.074;2023-04-24T08:13:38;8.03;;;6.37;;
21507;SDS011;10915;54.352;9.074;2023-04-24T08:16:04;9.03;;;5.97;;
21507;SDS011;10915;54.352;9.074;2023-04-24T08:18:29;10.00;;;6.73;;
21507;SDS011;10915;54.352;9.074;2023-04-24T08:20:55;7.70;;;6.40;;
21507;SDS011;10915;54.352;9.074;2023-04-24T08:23:26;6.60;;;5.40;;
21507;SDS011;10915;54.352;9.074;2023-04-24T08:25:51;9.20;;;6.37;;
21507;SDS011;10915;54.352;9.074;2023-04-24T08:28:17;7.40;;;5.47;;
21507;SDS011;10915;54.352;9.074;2023-04-24T08:30:45;7.90;;;5.90;;
21507;SDS011;10915;54.352;9.074;2023-04-24T08:33:12;9.10;;;5.87;;
21507;SDS011;10915;54.352;9.074;2023-04-24T08:35:38;8.20;;;5.03;;
21507;SDS011;10915;54.352;9.074;2023-04-24T08:38:04;6.50;;;5.07;;
21507;SDS011;10915;54.352;9.074;2023-04-24T08:40:30;6.90;;;5.00;;
21507;SDS011;10915;54.352;9.074;2023-04-24T08:42:59;6.93;;;4.90;;
21507;SDS011;10915;54.352;9.074;2023-04-24T08:45:25;6.83;;;4.57;;
21507;SDS011;10915;54.352;9.074;2023-04-24T08:47:54;4.93;;;3.87;;
21507;SDS011;10915;54.352;9.074;2023-04-24T08:50:24;5.47;;;4.00;;
21507;SDS011;10915;54.352;9.074;2023-04-24T08:52:50;6.07;;;3.57;;
21507;SDS011;10915;54.352;9.074;2023-04-24T08:55:18;4.13;;;3.37;;
21507;SDS011;10915;54.352;9.074;2023-04-24T08:57:45;4.83;;;3.83;;
21507;SDS011;10915;54.352;9.074;2023-04-24T09:00:18;5.47;;;3.90;;
21507;SDS011;10915;54.352;9.074;2023-04-24T09:02:48;5.30;;;3.73;;
21507;SDS011;10915;54.352;9.074;2023-04-24T09:05:16;9.27;;;6.00;;
21507;SDS011;10915;54.352;9.074;2023-04-24T09:07:45;5.37;;;4.17;;
21507;SDS011;10915;54.352;9.074;2023-04-24T09:10:12;4.37;;;3.73;;
21507;SDS011;10915;54.352;9.074;2023-04-24T09:12:38;4.83;;;3.80;;
21507;SDS011;10915;54.352;9.074;2023-04-24T09:15:05;7.13;;;5.10;;
21507;SDS011;10915;54.352;9.074;2023-04-24T09:17:33;5.30;;;4.23;;
21507;SDS011;10915;54.352;9.074;2023-04-24T09:19:59;5.37;;;3.80;;
21507;SDS011;10915;54.352;9.074;2023-04-24T09:22:24;4.83;;;3.37;;
21507;SDS011;10915;54.352;9.074;2023-04-24T09:25:04;5.10;;;3.20;;
21507;SDS011;10915;54.352;9.074;2023-04-24T09:27:32;6.43;;;3.83;;
21507;SDS011;10915;54.352;9.074;2023-04-24T09:29:58;3.93;;;3.40;;
21507;SDS011;10915;54.352;9.074;2023-04-24T09:32:25;4.53;;;3.30;;
21507;SDS011;10915;54.352;9.074;2023-04-24T09:37:40;4.10;;;2.80;;
21507;SDS011;10915;54.352;9.074;2023-04-24T09:40:15;3.80;;;2.53;;
21507;SDS011;10915;54.352;9.074;2023-04-24T09:42:45;4.33;;;2.60;;
21507;SDS011;10915;54.352;9.074;2023-04-24T09:45:16;3.93;;;2.63;;
21507;SDS011;10915;54.352;9.074;2023-04-24T09:47:41;4.03;;;2.83;;
21507;SDS011;10915;54.352;9.074;2023-04-24T09:50:11;4.70;;;3.20;;
21507;SDS011;10915;54.352;9.074;2023-04-24T09:53:11;3.80;;;3.10;;
21507;SDS011;10915;54.352;9.074;2023-04-24T09:55:33;4.17;;;3.20;;
21507;SDS011;10915;54.352;9.074;2023-04-24T09:58:07;3.73;;;3.33;;
21507;SDS011;10915;54.352;9.074;2023-04-24T10:00:33;4.17;;;3.00;;
21507;SDS011;10915;54.352;9.074;2023-04-24T10:05:29;3.13;;;2.70;;
21507;SDS011;10915;54.352;9.074;2023-04-24T10:08:01;4.93;;;3.50;;
21507;SDS011;10915;54.352;9.074;2023-04-24T10:10:28;3.37;;;3.03;;
21507;SDS011;10915;54.352;9.074;2023-04-24T10:12:55;4.10;;;2.87;;
21507;SDS011;10915;54.352;9.074;2023-04-24T10:15:21;4.30;;;3.30;;
21507;SDS011;10915;54.352;9.074;2023-04-24T10:17:48;5.93;;;3.70;;
21507;SDS011;10915;54.352;9.074;2023-04-24T10:20:21;3.50;;;3.03;;
21507;SDS011;10915;54.352;9.074;2023-04-24T10:22:50;5.40;;;3.10;;
21507;SDS011;10915;54.352;9.074;2023-04-24T10:25:27;5.03;;;3.23;;
21507;SDS011;10915;54.352;9.074;2023-04-24T10:27:57;3.80;;;2.80;;
21507;SDS011;10915;54.352;9.074;2023-04-24T10:30:25;3.33;;;2.33;;
21507;SDS011;10915;54.352;9.074;2023-04-24T10:32:52;3.07;;;2.60;;
21507;SDS011;10915;54.352;9.074;2023-04-24T10:35:18;2.93;;;2.63;;
21507;SDS011;10915;54.352;9.074;2023-04-24T10:37:51;4.10;;;3.00;;
21507;SDS011;10915;54.352;9.074;2023-04-24T10:40:27;4.53;;;2.80;;
21507;SDS011;10915;54.352;9.074;2023-04-24T10:42:57;3.23;;;2.43;;
21507;SDS011;10915;54.352;9.074;2023-04-24T10:45:23;3.43;;;2.63;;
21507;SDS011;10915;54.352;9.074;2023-04-24T10:47:52;3.00;;;2.47;;
21507;SDS011;10915;54.352;9.074;2023-04-24T10:50:23;2.50;;;2.30;;
21507;SDS011;10915;54.352;9.074;2023-04-24T10:52:50;2.07;;;1.87;;
21507;SDS011;10915;54.352;9.074;2023-04-24T10:55:39;2.60;;;1.50;;
21507;SDS011;10915;54.352;9.074;2023-04-24T10:58:07;1.73;;;1.53;;
21507;SDS011;10915;54.352;9.074;2023-04-24T11:00:33;4.50;;;2.20;;
21507;SDS011;10915;54.352;9.074;2023-04-24T11:03:04;4.03;;;2.00;;
21507;SDS011;10915;54.352;9.074;2023-04-24T11:06:31;4.47;;;1.87;;
21507;SDS011;10915;54.352;9.074;2023-04-24T11:08:45;3.43;;;2.87;;
21507;SDS011;10915;54.352;9.074;2023-04-24T11:11:17;7.10;;;4.43;;
21507;SDS011;10915;54.352;9.074;2023-04-24T11:22:34;9.10;;;4.33;;
21507;SDS011;10915;54.352;9.074;2023-04-24T11:24:39;9.87;;;4.67;;
21507;SDS011;10915;54.352;9.074;2023-04-24T11:27:17;7.93;;;4.53;;
21507;SDS011;10915;54.352;9.074;2023-04-24T11:37:27;9.97;;;7.63;;
21507;SDS011;10915;54.352;9.074;2023-04-24T11:39:55;16.67;;;10.87;;
21507;SDS011;10915;54.352;9.074;2023-04-24T11:42:23;16.00;;;10.07;;
21507;SDS011;10915;54.352;9.074;2023-04-24T11:44:51;11.93;;;8.37;;
21507;SDS011;10915;54.352;9.074;2023-04-24T11:47:17;12.40;;;8.37;;
21507;SDS011;10915;54.352;9.074;2023-04-24T11:49:43;10.67;;;7.03;;
21507;SDS011;10915;54.352;9.074;2023-04-24T11:52:09;12.70;;;8.10;;
21507;SDS011;10915;54.352;9.074;2023-04-24T11:54:35;9.97;;;6.90;;
21507;SDS011;10915;54.352;9.074;2023-04-24T11:57:03;11.93;;;7.73;;
21507;SDS011;10915;54.352;9.074;2023-04-24T11:59:35;8.53;;;6.30;;
21507;SDS011;10915;54.352;9.074;2023-04-24T12:02:02;9.73;;;6.10;;
21507;SDS011;10915;54.352;9.074;2023-04-24T12:04:37;9.77;;;5.50;;
21507;SDS011;10915;54.352;9.074;2023-04-24T12:07:06;7.43;;;5.83;;
21507;SDS011;10915;54.352;9.074;2023-04-24T12:09:46;6.37;;;5.13;;
21507;SDS011;10915;54.352;9.074;2023-04-24T12:12:13;8.77;;;5.43;;
21507;SDS011;10915;54.352;9.074;2023-04-24T12:17:14;7.80;;;5.37;;
21507;SDS011;10915;54.352;9.074;2023-04-24T12:19:44;6.57;;;4.40;;
21507;SDS011;10915;54.352;9.074;2023-04-24T12:22:12;10.00;;;5.40;;
21507;SDS011;10915;54.352;9.074;2023-04-24T12:24:55;7.10;;;5.40;;
21507;SDS011;10915;54.352;9.074;2023-04-24T12:27:22;9.07;;;5.67;;
21507;SDS011;10915;54.352;9.074;2023-04-24T12:29:51;7.90;;;5.53;;
21507;SDS011;10915;54.352;9.074;2023-04-24T12:32:18;12.30;;;5.90;;
21507;SDS011;10915;54.352;9.074;2023-04-24T12:34:44;8.70;;;5.50;;
21507;SDS011;10915;54.352;9.074;2023-04-24T12:37:10;9.43;;;6.00;;
21507;SDS011;10915;54.352;9.074;2023-04-24T12:39:37;12.30;;;6.27;;
21507;SDS011;10915;54.352;9.074;2023-04-24T12:42:03;9.30;;;5.80;;
21507;SDS011;10915;54.352;9.074;2023-04-24T12:44:32;8.33;;;5.40;;
21507;SDS011;10915;54.352;9.074;2023-04-24T12:46:59;12.50;;;7.90;;
21507;SDS011;10915;54.352;9.074;2023-04-24T12:49:26;7.70;;;6.60;;
21507;SDS011;10915;54.352;9.074;2023-04-24T12:51:53;11.80;;;6.50;;
21507;SDS011;10915;54.352;9.074;2023-04-24T12:54:19;11.80;;;7.60;;
21507;SDS011;10915;54.352;9.074;2023-04-24T12:56:44;8.13;;;6.50;;
21507;SDS011;10915;54.352;9.074;2023-04-24T12:59:10;9.17;;;7.93;;
21507;SDS011;10915;54.352;9.074;2023-04-24T13:01:36;10.60;;;7.30;;
21507;SDS011;10915;54.352;9.074;2023-04-24T13:04:01;8.53;;;7.17;;
21507;SDS011;10915;54.352;9.074;2023-04-24T13:06:27;8.40;;;6.63;;
21507;SDS011;10915;54.352;9.074;2023-04-24T13:08:53;7.20;;;5.40;;
21507;SDS011;10915;54.352;9.074;2023-04-24T13:11:20;9.50;;;6.93;;
21507;SDS011;10915;54.352;9.074;2023-04-24T13:13:47;9.07;;;6.90;;
21507;SDS011;10915;54.352;9.074;2023-04-24T13:16:12;10.70;;;5.93;;
21507;SDS011;10915;54.352;9.074;2023-04-24T13:18:38;13.93;;;6.07;;
21507;SDS011;10915;54.352;9.074;2023-04-24T13:21:04;10.97;;;6.70;;
21507;SDS011;10915;54.352;9.074;2023-04-24T13:23:29;9.43;;;7.77;;
21507;SDS011;10915;54.352;9.074;2023-04-24T13:25:55;14.60;;;9.17;;
21507;SDS011;10915;54.352;9.074;2023-04-24T13:28:23;12.93;;;9.60;;
21507;SDS011;10915;54.352;9.074;2023-04-24T13:30:50;11.47;;;8.57;;
21507;SDS011;10915;54.352;9.074;2023-04-24T13:33:16;11.63;;;8.10;;
21507;SDS011;10915;54.352;9.074;2023-04-24T13:35:41;15.83;;;8.20;;
21507;SDS011;10915;54.352;9.074;2023-04-24T13:38:07;11.90;;;8.73;;
21507;SDS011;10915;54.352;9.074;2023-04-24T13:40:33;13.77;;;8.87;;
21507;SDS011;10915;54.352;9.074;2023-04-24T13:42:58;12.67;;;8.97;;
21507;SDS011;10915;54.352;9.074;2023-04-24T13:45:24;14.37;;;9.50;;
21507;SDS011;10915;54.352;9.074;2023-04-24T13:47:50;15.67;;;9.30;;
21507;SDS011;10915;54.352;9.074;2023-04-24T13:50:17;17.70;;;10.03;;
21507;SDS011;10915;54.352;9.074;2023-04-24T13:52:42;14.83;;;10.03;;
21507;SDS011;10915;54.352;9.074;2023-04-24T13:55:08;15.77;;;10.47;;
21507;SDS011;10915;54.352;9.074;2023-04-24T13:57:34;14.27;;;10.63;;
21507;SDS011;10915;54.352;9.074;2023-04-24T14:00:00;15.13;;;10.47;;
21507;SDS011;10915;54.352;9.074;2023-04-24T14:02:28;16.10;;;11.33;;
21507;SDS011;10915;54.352;9.074;2023-04-24T14:04:54;21.67;;;14.07;;
21507;SDS011;10915;54.352;9.074;2023-04-24T14:07:20;17.90;;;12.17;;
21507;SDS011;10915;54.352;9.074;2023-04-24T14:09:45;19.30;;;13.07;;
21507;SDS011;10915;54.352;9.074;2023-04-24T14:12:11;18.03;;;13.20;;
21507;SDS011;10915;54.352;9.074;2023-04-24T14:14:37;17.70;;;13.17;;
21507;SDS011;10915;54.352;9.074;2023-04-24T14:17:03;17.77;;;11.80;;
21507;SDS011;10915;54.352;9.074;2023-04-24T14:19:28;22.23;;;11.83;;
21507;SDS011;10915;54.352;9.074;2023-04-24T14:21:54;19.73;;;11.77;;
21507;SDS011;10915;54.352;9.074;2023-04-24T14:24:21;15.73;;;11.47;;
21507;SDS011;10915;54.352;9.074;2023-04-24T14:26:47;17.13;;;11.07;;
21507;SDS011;10915;54.352;9.074;2023-04-24T14:29:12;17.30;;;11.33;;
21507;SDS011;10915;54.352;9.074;2023-04-24T14:31:38;19.57;;;11.20;;
21507;SDS011;10915;54.352;9.074;2023-04-24T14:34:04;16.70;;;10.53;;
21507;SDS011;10915;54.352;9.074;2023-04-24T14:36:29;16.73;;;10.60;;
21507;SDS011;10915;54.352;9.074;2023-04-24T14:38:56;19.10;;;10.73;;
21507;SDS011;10915;54.352;9.074;2023-04-24T14:41:22;21.40;;;11.77;;
21507;SDS011;10915;54.352;9.074;2023-04-24T14:43:47;20.07;;;11.20;;
21507;SDS011;10915;54.352;9.074;2023-04-24T14:46:13;15.00;;;10.63;;
21507;SDS011;10915;54.352;9.074;2023-04-24T14:48:38;15.37;;;9.93;;
21507;SDS011;10915;54.352;9.074;2023-04-24T14:51:04;12.57;;;8.90;;
21507;SDS011;10915;54.352;9.074;2023-04-24T14:53:30;14.17;;;9.53;;
21507;SDS011;10915;54.352;9.074;2023-04-24T14:55:55;15.87;;;9.70;;
21507;SDS011;10915;54.352;9.074;2023-04-24T14:58:21;13.07;;;8.50;;